Time;durP1;ratioP1;P1;durP2;ratioP2;P2;SDS_P1;SDS_P2;PMS_P1;PMS_P2;Temp;Humidity;BMP_temperature;BMP_pressure;BME280_temperature;BME280_humidity;BME280_pressure;Samples;Min_cycle;Max_cycle;Signal;HPM_P1;HPM_P2
2023/05/30 00:02:26;;;;;;;15.55;12.00;;;15.40;99.90;;;;;;5039534;28;20033;-75
2023/05/30 00:04:55;;;;;;;15.52;12.40;;;15.50;99.90;;;;;;5040053;28;20041;-77
2023/05/30 00:07:22;;;;;;;13.85;12.35;;;15.40;99.90;;;;;;5037454;28;20053;-75
2023/05/30 00:09:50;;;;;;;15.00;12.07;;;15.40;99.90;;;;;;5037667;28;20037;-77
2023/05/30 00:12:17;;;;;;;14.57;12.02;;;15.40;99.90;;;;;;5038743;28;20063;-77
2023/05/30 00:14:47;;;;;;;12.60;11.30;;;15.30;99.90;;;;;;5038683;28;20053;-77
2023/05/30 00:17:16;;;;;;;14.25;12.18;;;15.30;99.90;;;;;;5037814;28;20049;-77
2023/05/30 00:19:44;;;;;;;17.08;11.55;;;15.20;99.90;;;;;;5039246;28;20041;-76
2023/05/30 00:22:13;;;;;;;13.10;11.70;;;15.20;99.90;;;;;;5038511;28;20046;-78
2023/05/30 00:24:40;;;;;;;14.18;12.77;;;15.20;99.90;;;;;;5042083;28;20056;-76
2023/05/30 00:27:08;;;;;;;14.13;11.77;;;15.20;99.90;;;;;;5039048;28;20065;-79
2023/05/30 00:29:38;;;;;;;17.27;12.30;;;15.20;99.90;;;;;;5040500;28;20455;-75
2023/05/30 00:32:08;;;;;;;16.02;11.75;;;15.10;99.90;;;;;;5041903;28;20055;-77
2023/05/30 00:34:35;;;;;;;17.80;11.73;;;15.10;99.90;;;;;;5039165;28;20034;-78
2023/05/30 00:37:05;;;;;;;14.77;11.85;;;15.00;99.90;;;;;;5036587;28;20049;-76
2023/05/30 00:39:34;;;;;;;12.88;10.60;;;15.00;99.90;;;;;;5036311;28;20492;-79
2023/05/30 00:42:02;;;;;;;13.65;10.88;;;15.00;99.90;;;;;;5038733;28;20037;-78
2023/05/30 00:44:29;;;;;;;11.88;10.65;;;14.90;99.90;;;;;;5037967;28;20540;-75
2023/05/30 00:46:57;;;;;;;15.27;12.18;;;14.90;99.90;;;;;;5040664;28;20121;-75
2023/05/30 00:49:26;;;;;;;15.60;13.02;;;14.80;99.90;;;;;;5038842;28;20041;-76
2023/05/30 00:51:54;;;;;;;16.25;12.63;;;14.80;99.90;;;;;;5037899;28;20041;-78
2023/05/30 00:54:23;;;;;;;13.13;11.63;;;14.80;99.90;;;;;;5037883;28;20472;-76
2023/05/30 00:56:52;;;;;;;13.60;12.20;;;14.80;99.90;;;;;;5037769;28;20040;-77
2023/05/30 00:59:20;;;;;;;14.15;11.23;;;14.80;99.90;;;;;;5037090;28;20095;-78
2023/05/30 01:01:48;;;;;;;16.13;12.45;;;14.70;99.90;;;;;;5037092;28;20053;-79
2023/05/30 01:04:15;;;;;;;16.90;11.95;;;14.60;99.90;;;;;;5037230;28;20037;-78
2023/05/30 01:06:46;;;;;;;14.55;11.13;;;14.50;99.90;;;;;;5037157;28;20033;-78
2023/05/30 01:09:15;;;;;;;17.77;12.75;;;14.50;99.90;;;;;;5035797;28;20048;-77
2023/05/30 01:11:54;;;;;;;15.68;11.88;;;14.40;99.90;;;;;;5052943;28;20042;-78
2023/05/30 01:14:32;;;;;;;18.80;12.27;;;14.40;99.90;;;;;;5037920;28;20033;-78
2023/05/30 01:17:03;;;;;;;16.63;13.85;;;14.30;99.90;;;;;;5037224;28;20049;-77
2023/05/30 01:19:56;;;;;;;17.27;12.07;;;14.20;99.90;;;;;;5037380;28;20080;-78
2023/05/30 01:22:37;;;;;;;17.90;13.48;;;14.20;99.90;;;;;;5037207;28;20037;-77
2023/05/30 01:25:28;;;;;;;15.38;12.68;;;14.20;99.90;;;;;;5037021;28;20091;-76
2023/05/30 01:28:06;;;;;;;18.25;13.40;;;14.20;99.90;;;;;;5034201;28;20060;-75
2023/05/30 01:30:37;;;;;;;19.95;12.95;;;14.20;99.90;;;;;;5038285;28;20041;-76
2023/05/30 01:33:06;;;;;;;15.70;13.13;;;14.10;99.90;;;;;;5037207;28;20632;-78
2023/05/30 01:35:33;;;;;;;17.05;13.35;;;14.10;99.90;;;;;;5054023;28;20045;-75
2023/05/30 01:38:01;;;;;;;17.40;13.38;;;14.10;99.90;;;;;;5039286;28;20049;-76
2023/05/30 01:40:29;;;;;;;14.10;12.48;;;14.10;99.90;;;;;;5037518;28;20627;-77
2023/05/30 01:43:00;;;;;;;15.05;13.10;;;14.00;99.90;;;;;;5037208;28;20477;-77
2023/05/30 01:45:43;;;;;;;16.20;11.50;;;14.00;99.90;;;;;;5036253;28;20643;-77
2023/05/30 01:48:16;;;;;;;13.57;11.52;;;13.90;99.90;;;;;;5034992;28;20052;-77
2023/05/30 01:50:48;;;;;;;12.95;11.65;;;13.90;99.90;;;;;;5036787;28;20472;-76
2023/05/30 01:53:23;;;;;;;13.23;11.48;;;13.90;99.90;;;;;;5037735;28;20033;-77
2023/05/30 01:55:54;;;;;;;13.27;11.80;;;13.80;99.90;;;;;;5038353;28;20058;-78
2023/05/30 01:58:24;;;;;;;14.15;11.73;;;13.80;99.90;;;;;;5044637;28;20046;-76
2023/05/30 02:00:55;;;;;;;14.35;12.40;;;13.80;99.90;;;;;;5054476;28;20048;-75
2023/05/30 02:03:24;;;;;;;15.48;13.02;;;13.80;99.90;;;;;;5048748;28;20045;-77
2023/05/30 02:05:52;;;;;;;17.23;13.00;;;13.80;99.90;;;;;;5044910;28;20152;-79
2023/05/30 02:08:19;;;;;;;16.58;13.15;;;13.80;99.90;;;;;;5045291;28;20763;-78
2023/05/30 02:10:47;;;;;;;14.15;12.50;;;13.90;99.90;;;;;;5036910;28;20141;-75
2023/05/30 02:13:15;;;;;;;14.43;11.10;;;14.10;99.90;;;;;;5036742;28;20060;-78
2023/05/30 02:15:42;;;;;;;14.82;11.07;;;14.10;99.90;;;;;;5038728;28;20047;-78
2023/05/30 02:18:12;;;;;;;15.88;11.70;;;14.00;99.90;;;;;;5039861;28;20128;-78
2023/05/30 02:20:40;;;;;;;17.85;12.93;;;14.10;99.90;;;;;;5036524;28;20389;-76
2023/05/30 02:23:09;;;;;;;15.27;12.52;;;14.10;99.90;;;;;;5037937;28;20037;-77
2023/05/30 02:25:37;;;;;;;15.02;11.65;;;14.00;99.90;;;;;;5036415;28;20045;-75
2023/05/30 02:28:05;;;;;;;18.13;12.73;;;14.00;99.90;;;;;;5037926;28;20041;-76
2023/05/30 02:30:33;;;;;;;18.58;13.68;;;14.00;99.90;;;;;;5044037;28;20038;-77
2023/05/30 02:33:01;;;;;;;14.43;12.85;;;14.00;99.90;;;;;;5059790;28;20053;-80
2023/05/30 02:35:30;;;;;;;14.15;12.05;;;14.00;99.90;;;;;;5060153;28;20041;-77
2023/05/30 02:37:58;;;;;;;15.68;12.20;;;14.00;99.90;;;;;;5053442;28;20041;-76
2023/05/30 02:40:25;;;;;;;16.23;12.48;;;14.00;99.90;;;;;;5036366;28;20042;-74
2023/05/30 02:42:53;;;;;;;18.50;12.82;;;14.00;99.90;;;;;;5036215;28;20071;-77
2023/05/30 02:45:21;;;;;;;15.13;11.05;;;14.00;99.90;;;;;;5037716;28;20041;-76
2023/05/30 02:47:49;;;;;;;13.35;11.05;;;14.00;99.90;;;;;;5040426;28;20053;-74
2023/05/30 02:50:17;;;;;;;15.32;11.25;;;14.00;99.90;;;;;;5046612;28;20566;-77
2023/05/30 02:52:46;;;;;;;14.70;11.55;;;14.00;99.90;;;;;;5041059;28;20030;-79
2023/05/30 02:55:14;;;;;;;15.55;11.25;;;14.10;99.90;;;;;;5045794;28;20045;-77
2023/05/30 02:58:04;;;;;;;16.60;12.43;;;14.10;99.90;;;;;;5048731;28;20045;-77
2023/05/30 03:00:45;;;;;;;19.52;12.70;;;14.00;99.90;;;;;;5040357;28;20577;-79
2023/05/30 03:03:21;;;;;;;19.42;13.38;;;14.00;99.90;;;;;;5039221;28;20048;-78
2023/05/30 03:05:53;;;;;;;21.65;13.57;;;14.00;99.90;;;;;;5037961;28;20045;-76
2023/05/30 03:08:45;;;;;;;17.30;13.30;;;14.00;99.90;;;;;;5031665;28;20050;-78
2023/05/30 03:11:13;;;;;;;19.35;12.50;;;14.00;99.90;;;;;;5036766;28;20041;-76
2023/05/30 03:13:41;;;;;;;14.93;12.38;;;14.00;99.90;;;;;;5037974;28;20217;-75
2023/05/30 03:16:09;;;;;;;15.90;12.35;;;14.00;99.90;;;;;;5038880;28;20124;-76
2023/05/30 03:18:36;;;;;;;16.77;12.35;;;14.00;99.90;;;;;;5039689;28;20077;-78
2023/05/30 03:21:04;;;;;;;16.30;12.02;;;14.00;99.90;;;;;;5036490;28;20417;-75
2023/05/30 03:23:32;;;;;;;19.00;12.13;;;14.00;99.90;;;;;;5040634;28;20042;-77
2023/05/30 03:26:01;;;;;;;13.98;11.82;;;14.00;99.90;;;;;;5037628;28;20052;-77
2023/05/30 03:28:28;;;;;;;17.98;12.25;;;14.10;99.90;;;;;;5038009;28;20592;-76
2023/05/30 03:31:12;;;;;;;15.15;11.23;;;14.10;99.90;;;;;;5039130;28;20051;-75
2023/05/30 03:33:40;;;;;;;18.58;11.80;;;14.20;99.90;;;;;;5041947;28;20041;-77
2023/05/30 03:36:10;;;;;;;14.45;11.90;;;14.20;99.90;;;;;;5038350;28;20072;-75
2023/05/30 03:38:38;;;;;;;17.08;12.27;;;14.20;99.90;;;;;;5041620;28;20077;-75
2023/05/30 03:41:07;;;;;;;19.73;12.60;;;14.20;99.90;;;;;;5040934;28;20061;-77
2023/05/30 03:43:35;;;;;;;17.63;12.93;;;14.30;99.90;;;;;;5037862;28;20152;-76
2023/05/30 03:46:02;;;;;;;19.02;12.68;;;14.30;99.90;;;;;;5055429;28;20033;-78
2023/05/30 03:48:30;;;;;;;17.92;12.82;;;14.30;99.90;;;;;;5040234;28;20053;-75
2023/05/30 03:50:58;;;;;;;23.95;13.95;;;14.30;99.90;;;;;;5051760;28;20037;-75
2023/05/30 03:53:25;;;;;;;18.83;12.02;;;14.40;99.90;;;;;;5039099;28;20098;-75
2023/05/30 03:55:53;;;;;;;19.83;11.82;;;14.40;99.90;;;;;;5042109;28;20049;-76
2023/05/30 03:58:22;;;;;;;16.38;10.13;;;14.50;99.90;;;;;;5040699;28;20412;-77
2023/05/30 04:00:49;;;;;;;15.85;11.00;;;14.50;99.90;;;;;;5054881;28;20033;-78
2023/05/30 04:03:19;;;;;;;17.67;11.95;;;14.50;99.90;;;;;;5061917;28;20059;-77
2023/05/30 04:05:48;;;;;;;18.63;12.18;;;14.50;99.90;;;;;;5057992;28;20388;-75
2023/05/30 04:08:16;;;;;;;17.33;10.93;;;14.60;99.90;;;;;;5072095;28;20046;-77
2023/05/30 04:10:44;;;;;;;14.15;11.75;;;14.60;99.90;;;;;;5059228;28;20041;-78
2023/05/30 04:13:11;;;;;;;19.75;12.15;;;14.70;99.90;;;;;;5057165;28;20091;-77
2023/05/30 04:15:42;;;;;;;15.85;11.38;;;14.80;99.90;;;;;;5051543;28;20053;-76
2023/05/30 04:18:10;;;;;;;14.70;11.13;;;14.80;99.90;;;;;;5039236;28;20131;-74
2023/05/30 04:20:37;;;;;;;16.98;11.93;;;14.80;99.90;;;;;;5037298;28;20128;-75
2023/05/30 04:23:04;;;;;;;17.65;10.93;;;14.90;99.90;;;;;;5039079;28;20119;-75
2023/05/30 04:25:32;;;;;;;12.68;11.00;;;14.90;99.90;;;;;;5038844;28;20408;-75
2023/05/30 04:28:00;;;;;;;18.75;10.95;;;15.00;99.90;;;;;;5037341;28;20391;-77
2023/05/30 04:30:28;;;;;;;13.40;11.48;;;15.10;99.90;;;;;;5038181;28;20041;-76
2023/05/30 04:32:56;;;;;;;15.35;10.88;;;15.20;99.90;;;;;;5037499;28;20088;-75
2023/05/30 04:35:24;;;;;;;14.55;11.57;;;15.30;99.90;;;;;;5050237;28;20052;-77
2023/05/30 04:37:53;;;;;;;15.27;11.35;;;15.40;99.90;;;;;;5057943;28;20048;-76
2023/05/30 04:40:21;;;;;;;17.52;11.43;;;15.50;99.90;;;;;;5047488;28;20071;-76
2023/05/30 04:42:51;;;;;;;16.30;12.23;;;15.60;99.90;;;;;;5058682;28;20032;-76
2023/05/30 04:45:19;;;;;;;17.92;13.05;;;15.60;99.90;;;;;;5042439;28;20045;-76
2023/05/30 04:47:46;;;;;;;18.00;12.52;;;15.70;99.90;;;;;;5040676;28;20037;-75
2023/05/30 04:50:16;;;;;;;18.25;11.60;;;15.70;99.90;;;;;;5037240;28;20048;-76
2023/05/30 04:52:44;;;;;;;19.67;12.13;;;15.80;99.90;;;;;;5037593;28;20045;-77
2023/05/30 04:55:12;;;;;;;15.35;10.57;;;15.90;99.90;;;;;;5035442;28;20073;-78
2023/05/30 04:57:40;;;;;;;17.27;11.43;;;15.90;99.90;;;;;;5038872;28;20126;-75
2023/05/30 05:00:13;;;;;;;17.38;11.82;;;15.90;99.90;;;;;;5038522;28;20566;-76
2023/05/30 05:02:42;;;;;;;15.70;12.23;;;16.00;99.90;;;;;;5039933;28;20488;-76
2023/05/30 05:05:09;;;;;;;17.20;12.57;;;16.00;99.90;;;;;;5037978;28;20083;-76
2023/05/30 05:07:38;;;;;;;19.80;12.18;;;16.10;99.90;;;;;;5038256;28;20101;-77
2023/05/30 05:10:06;;;;;;;18.77;12.60;;;16.20;99.90;;;;;;5039509;28;20052;-75
2023/05/30 05:12:33;;;;;;;18.02;14.05;;;16.40;99.90;;;;;;5041155;28;20049;-78
2023/05/30 05:15:01;;;;;;;20.30;13.02;;;16.40;99.90;;;;;;5042463;28;20044;-76
2023/05/30 05:17:28;;;;;;;19.60;13.38;;;16.50;99.90;;;;;;5044835;28;20048;-75
2023/05/30 05:19:56;;;;;;;22.65;14.10;;;16.60;99.90;;;;;;5047134;28;20049;-76
2023/05/30 05:22:24;;;;;;;23.38;16.27;;;16.80;99.90;;;;;;5046571;28;20515;-76
2023/05/30 05:24:52;;;;;;;24.90;15.80;;;17.00;99.90;;;;;;5043642;28;20424;-76
2023/05/30 05:27:20;;;;;;;23.98;15.25;;;17.30;99.90;;;;;;5039871;28;20409;-77
2023/05/30 05:29:47;;;;;;;27.75;16.52;;;17.50;99.90;;;;;;5041009;28;20545;-77
2023/05/30 05:32:16;;;;;;;27.60;17.50;;;17.50;99.90;;;;;;5037181;28;20048;-76
2023/05/30 05:34:43;;;;;;;27.70;17.92;;;17.60;99.90;;;;;;5038170;28;20041;-75
2023/05/30 05:37:10;;;;;;;32.47;18.95;;;17.70;99.90;;;;;;5037807;28;20124;-79
2023/05/30 05:39:38;;;;;;;25.38;18.73;;;17.80;99.90;;;;;;5038754;28;20072;-76
2023/05/30 05:42:07;;;;;;;32.50;19.20;;;18.00;99.90;;;;;;5038229;28;20080;-76
2023/05/30 05:44:36;;;;;;;37.95;20.23;;;18.20;99.90;;;;;;5051805;28;20045;-78
2023/05/30 05:47:03;;;;;;;32.03;20.02;;;18.30;99.90;;;;;;5038901;28;20120;-77
2023/05/30 05:49:31;;;;;;;27.48;19.85;;;18.40;99.90;;;;;;5038671;28;20600;-76
2023/05/30 05:51:58;;;;;;;31.20;20.08;;;18.50;99.90;;;;;;5038148;28;20045;-76
2023/05/30 05:54:26;;;;;;;28.58;20.13;;;18.40;99.90;;;;;;5034942;28;20037;-78
2023/05/30 05:56:53;;;;;;;27.30;18.48;;;18.30;99.90;;;;;;5038231;28;20099;-78
2023/05/30 05:59:22;;;;;;;26.25;19.88;;;18.40;99.90;;;;;;5037657;28;20041;-77
2023/05/30 06:01:49;;;;;;;33.70;23.55;;;18.40;99.90;;;;;;5038438;28;20401;-78
2023/05/30 06:04:17;;;;;;;32.47;21.25;;;18.50;99.90;;;;;;5037125;28;20054;-76
2023/05/30 06:06:44;;;;;;;56.10;31.35;;;18.40;99.90;;;;;;5036732;28;20577;-76
2023/05/30 06:09:12;;;;;;;55.40;28.20;;;18.40;99.90;;;;;;5036395;28;20037;-76
2023/05/30 06:11:39;;;;;;;64.07;30.25;;;18.40;99.90;;;;;;5037260;28;20045;-76
2023/05/30 06:14:07;;;;;;;69.85;30.45;;;18.60;99.90;;;;;;5037663;28;20046;-75
2023/05/30 06:16:36;;;;;;;92.65;37.85;;;18.90;99.90;;;;;;5058454;28;20029;-76
2023/05/30 06:19:03;;;;;;;137.38;59.05;;;19.00;99.90;;;;;;5062759;28;20110;-77
2023/05/30 06:21:32;;;;;;;116.95;47.90;;;19.10;99.90;;;;;;5047633;28;20046;-77
2023/05/30 06:24:00;;;;;;;138.25;55.15;;;19.00;99.90;;;;;;5040565;28;20049;-75
2023/05/30 06:26:27;;;;;;;143.30;58.13;;;19.20;99.90;;;;;;5038711;28;20152;-77
2023/05/30 06:28:55;;;;;;;134.30;56.28;;;19.20;99.90;;;;;;5041611;28;20041;-76
2023/05/30 06:31:22;;;;;;;138.38;60.22;;;19.30;99.90;;;;;;5041471;28;20049;-76
2023/05/30 06:33:51;;;;;;;136.13;59.08;;;19.40;99.90;;;;;;5041518;28;20098;-76
2023/05/30 06:36:19;;;;;;;122.78;55.75;;;19.40;99.90;;;;;;5042327;28;20045;-76
2023/05/30 06:38:47;;;;;;;123.65;55.95;;;19.50;99.90;;;;;;5044970;28;20052;-77
2023/05/30 06:41:14;;;;;;;118.80;52.20;;;19.70;99.90;;;;;;5044020;28;20453;-77
2023/05/30 06:43:42;;;;;;;116.47;51.58;;;19.90;99.90;;;;;;5043384;28;20049;-78
2023/05/30 06:46:09;;;;;;;112.93;50.22;;;20.00;99.90;;;;;;5042510;28;20049;-79
2023/05/30 06:48:37;;;;;;;104.53;47.45;;;20.10;99.90;;;;;;5043226;28;20044;-78
2023/05/30 06:51:06;;;;;;;104.63;49.42;;;20.20;99.90;;;;;;5039693;28;20068;-75
2023/05/30 06:53:34;;;;;;;97.75;45.47;;;20.40;99.90;;;;;;5039645;28;20604;-78
2023/05/30 06:56:01;;;;;;;111.03;51.47;;;20.40;99.90;;;;;;5037782;28;20056;-79
2023/05/30 06:58:28;;;;;;;114.45;54.58;;;20.30;99.90;;;;;;5040393;28;20041;-83
2023/05/30 07:00:56;;;;;;;142.75;63.30;;;20.30;99.90;;;;;;5043421;28;20041;-81
2023/05/30 07:03:24;;;;;;;120.50;60.28;;;20.30;99.90;;;;;;5040648;28;20558;-79
2023/05/30 07:05:51;;;;;;;108.13;52.50;;;20.20;99.90;;;;;;5040895;28;20052;-79
2023/05/30 07:08:20;;;;;;;128.98;55.22;;;20.20;99.90;;;;;;5042377;28;20040;-79
2023/05/30 07:10:47;;;;;;;124.32;54.30;;;20.30;99.90;;;;;;5043173;28;20045;-79
2023/05/30 07:13:15;;;;;;;125.45;54.75;;;20.50;99.90;;;;;;5046448;28;20040;-80
2023/05/30 07:15:42;;;;;;;113.90;55.47;;;20.50;99.90;;;;;;5044280;28;20379;-79
2023/05/30 07:18:10;;;;;;;116.63;53.92;;;20.50;99.90;;;;;;5041613;28;20195;-79
2023/05/30 07:20:37;;;;;;;111.70;55.70;;;20.50;99.90;;;;;;5042574;28;20051;-79
2023/05/30 07:23:05;;;;;;;116.40;56.55;;;20.70;99.90;;;;;;5042859;28;20041;-78
2023/05/30 07:25:34;;;;;;;105.65;53.60;;;20.90;99.90;;;;;;5041915;28;20125;-80
2023/05/30 07:28:01;;;;;;;108.50;52.65;;;21.00;99.90;;;;;;5040207;28;20436;-80
2023/05/30 07:30:29;;;;;;;98.40;52.03;;;20.90;99.90;;;;;;5040456;28;20417;-79
2023/05/30 07:32:56;;;;;;;98.85;49.17;;;21.10;99.90;;;;;;5042434;28;20037;-79
2023/05/30 07:35:24;;;;;;;107.28;51.80;;;21.10;99.90;;;;;;5039989;28;20037;-81
2023/05/30 07:37:52;;;;;;;99.32;52.20;;;21.50;99.90;;;;;;5041631;28;20057;-79
2023/05/30 07:40:20;;;;;;;94.55;49.63;;;21.90;99.90;;;;;;5040879;28;20044;-79
2023/05/30 07:42:49;;;;;;;94.70;49.42;;;22.30;99.90;;;;;;5040963;28;20049;-80
2023/05/30 07:45:18;;;;;;;93.85;50.25;;;22.70;99.90;;;;;;5037861;28;20041;-80
2023/05/30 07:47:45;;;;;;;98.55;49.53;;;23.00;99.90;;;;;;5040112;28;20550;-78
2023/05/30 07:50:12;;;;;;;101.38;50.13;;;23.10;99.90;;;;;;5038382;28;20115;-80
2023/05/30 07:52:40;;;;;;;86.65;46.35;;;22.80;99.90;;;;;;5040330;28;20049;-80
2023/05/30 07:55:08;;;;;;;85.03;44.80;;;23.10;99.90;;;;;;5039127;28;20037;-79
2023/05/30 07:57:35;;;;;;;72.78;42.45;;;23.10;99.90;;;;;;5039344;28;20049;-78
2023/05/30 08:00:08;;;;;;;80.10;43.15;;;23.10;99.90;;;;;;5034538;28;20060;-79
2023/05/30 08:02:38;;;;;;;91.10;48.70;;;23.30;99.90;;;;;;5036548;28;20046;-79
2023/05/30 08:05:06;;;;;;;88.70;47.05;;;23.20;99.90;;;;;;5041425;28;20041;-78
2023/05/30 08:07:34;;;;;;;91.13;48.38;;;23.10;99.90;;;;;;5039967;28;20132;-78
2023/05/30 08:10:01;;;;;;;86.65;46.10;;;22.90;99.90;;;;;;5043790;28;20049;-80
2023/05/30 08:12:29;;;;;;;86.18;45.22;;;23.00;99.90;;;;;;5042774;28;20044;-80
2023/05/30 08:14:58;;;;;;;86.50;46.08;;;23.10;99.90;;;;;;5041289;28;20062;-78
2023/05/30 08:17:29;;;;;;;79.50;43.70;;;23.10;99.90;;;;;;5045459;28;20154;-79
2023/05/30 08:19:57;;;;;;;78.65;40.50;;;23.30;99.90;;;;;;5042990;28;20041;-79
2023/05/30 08:22:24;;;;;;;82.55;44.03;;;23.20;99.90;;;;;;5041211;28;20042;-79
2023/05/30 08:24:55;;;;;;;80.30;42.05;;;23.10;99.90;;;;;;5038775;28;20037;-78
2023/05/30 08:27:23;;;;;;;77.65;41.53;;;22.90;99.90;;;;;;5040489;28;20496;-79
2023/05/30 08:29:50;;;;;;;79.18;41.42;;;22.90;99.90;;;;;;5037309;28;20691;-79
2023/05/30 08:32:18;;;;;;;75.75;41.38;;;22.90;99.90;;;;;;5039220;28;20049;-76
2023/05/30 08:34:47;;;;;;;67.18;37.95;;;23.00;99.90;;;;;;5039840;28;20041;-77
2023/05/30 08:37:14;;;;;;;69.57;39.38;;;22.90;99.90;;;;;;5038806;28;20038;-76
2023/05/30 08:39:41;;;;;;;72.22;39.00;;;23.00;99.90;;;;;;5040068;28;20072;-76
2023/05/30 08:42:12;;;;;;;69.90;37.33;;;23.10;99.90;;;;;;5037949;28;20077;-76
2023/05/30 08:44:40;;;;;;;71.65;37.75;;;22.70;99.90;;;;;;5038953;28;20116;-75
2023/05/30 08:47:12;;;;;;;63.88;35.45;;;22.80;99.90;;;;;;5039573;28;20045;-76
2023/05/30 08:49:42;;;;;;;68.60;36.80;;;22.70;99.90;;;;;;5037977;28;20419;-77
2023/05/30 08:52:14;;;;;;;61.05;34.85;;;22.90;99.90;;;;;;5038429;28;20046;-76
2023/05/30 08:54:48;;;;;;;66.47;37.83;;;23.30;99.90;;;;;;5038848;28;20034;-76
2023/05/30 08:57:19;;;;;;;63.15;35.15;;;23.60;99.90;;;;;;5038426;28;20048;-77
2023/05/30 08:59:50;;;;;;;66.10;35.33;;;23.70;99.90;;;;;;5039512;28;20048;-75
2023/05/30 09:02:20;;;;;;;65.82;35.95;;;24.20;99.90;;;;;;5038083;28;20053;-76
2023/05/30 09:04:50;;;;;;;62.97;38.78;;;24.60;99.90;;;;;;5038878;28;20048;-76
2023/05/30 09:07:21;;;;;;;67.63;37.15;;;25.00;99.90;;;;;;5039108;28;20648;-75
2023/05/30 09:09:49;;;;;;;64.85;36.65;;;25.50;99.90;;;;;;5036654;28;20045;-76
2023/05/30 09:12:18;;;;;;;60.90;34.67;;;25.70;99.90;;;;;;5040428;28;20038;-77
2023/05/30 09:14:45;;;;;;;61.58;33.70;;;25.50;99.90;;;;;;5038504;28;20046;-79
2023/05/30 09:17:13;;;;;;;67.90;35.60;;;25.10;99.90;;;;;;5039415;28;20439;-76
2023/05/30 09:19:40;;;;;;;53.33;31.33;;;25.10;99.90;;;;;;5039504;28;20141;-75
2023/05/30 09:22:08;;;;;;;51.03;30.25;;;25.40;99.90;;;;;;5040479;28;20147;-77
2023/05/30 09:25:00;;;;;;;50.47;29.58;;;25.60;99.90;;;;;;5037129;28;20556;-77
2023/05/30 09:27:28;;;;;;;46.35;28.85;;;25.70;99.90;;;;;;5038238;28;20034;-75
2023/05/30 09:29:56;;;;;;;45.67;28.38;;;26.20;99.90;;;;;;5036558;28;20045;-76
2023/05/30 09:32:34;;;;;;;45.38;26.63;;;26.40;98.50;;;;;;5037091;28;20044;-75
2023/05/30 09:35:05;;;;;;;36.03;23.35;;;26.70;96.30;;;;;;5037539;28;20065;-77
2023/05/30 09:37:37;;;;;;;40.60;24.75;;;26.60;95.50;;;;;;5039637;28;20128;-78
2023/05/30 09:40:09;;;;;;;42.03;25.80;;;26.80;95.50;;;;;;5038660;28;20048;-75
2023/05/30 09:42:41;;;;;;;46.05;29.42;;;27.20;94.30;;;;;;5037811;28;20065;-74
2023/05/30 09:45:10;;;;;;;48.50;30.02;;;27.60;93.20;;;;;;5040128;28;20504;-76
2023/05/30 09:47:48;;;;;;;50.42;30.60;;;28.00;92.00;;;;;;5059640;28;20025;-75
2023/05/30 09:50:17;;;;;;;52.65;33.40;;;28.00;90.90;;;;;;5060476;28;20060;-76
2023/05/30 09:52:48;;;;;;;40.90;25.90;;;27.80;91.00;;;;;;5044124;28;20487;-74
2023/05/30 09:55:17;;;;;;;41.35;25.42;;;27.90;90.70;;;;;;5042691;28;20072;-76
2023/05/30 09:57:48;;;;;;;43.95;27.92;;;27.90;90.20;;;;;;5040884;28;20045;-77
2023/05/30 10:00:17;;;;;;;59.53;35.10;;;27.50;91.00;;;;;;5041096;28;20052;-76
2023/05/30 10:02:54;;;;;;;46.67;28.65;;;27.70;90.90;;;;;;5041881;28;20045;-75
2023/05/30 10:05:23;;;;;;;41.03;26.27;;;27.90;90.10;;;;;;5041944;28;20443;-76
2023/05/30 10:07:51;;;;;;;36.83;23.63;;;27.60;90.80;;;;;;5041934;28;20060;-77
2023/05/30 10:10:21;;;;;;;36.05;22.45;;;27.30;90.10;;;;;;5042978;28;20128;-77
2023/05/30 10:12:49;;;;;;;36.25;24.10;;;27.30;90.10;;;;;;5041435;28;20048;-75
2023/05/30 10:15:18;;;;;;;30.10;18.77;;;27.40;89.80;;;;;;5041939;28;20037;-76
2023/05/30 10:17:48;;;;;;;28.52;17.65;;;27.10;88.90;;;;;;5041321;28;20496;-78
2023/05/30 10:20:17;;;;;;;29.20;17.52;;;26.60;89.90;;;;;;5040378;28;20076;-76
2023/05/30 10:22:47;;;;;;;23.33;15.68;;;25.90;91.70;;;;;;5040379;28;20034;-78
2023/05/30 10:25:16;;;;;;;19.20;13.05;;;25.50;92.70;;;;;;5040416;28;20041;-76
2023/05/30 10:27:49;;;;;;;23.20;12.18;;;25.10;95.80;;;;;;5040763;28;20045;-77
2023/05/30 10:30:21;;;;;;;29.33;12.90;;;23.00;99.90;;;;;;5044346;28;20044;-76
2023/05/30 10:32:57;;;;;;;22.38;13.75;;;20.80;99.90;;;;;;5057702;28;20045;-76
2023/05/30 10:35:26;;;;;;;22.42;18.27;;;19.90;99.90;;;;;;5055918;28;20067;-77
2023/05/30 10:37:54;;;;;;;28.55;17.08;;;19.70;99.90;;;;;;5043616;28;20045;-76
2023/05/30 10:40:30;;;;;;;39.55;20.45;;;19.70;99.90;;;;;;5041317;28;20052;-76
2023/05/30 10:43:12;;;;;;;31.75;21.50;;;19.70;99.90;;;;;;5041093;28;20123;-76
2023/05/30 10:45:54;;;;;;;47.00;28.15;;;19.70;99.90;;;;;;5041321;28;20409;-75
2023/05/30 10:48:28;;;;;;;36.15;26.48;;;19.80;99.90;;;;;;5041953;28;20053;-75
2023/05/30 10:50:59;;;;;;;33.40;25.52;;;19.80;99.90;;;;;;5039766;28;20044;-75
2023/05/30 10:53:27;;;;;;;36.70;26.00;;;20.00;99.90;;;;;;5057950;28;20041;-76
2023/05/30 10:55:55;;;;;;;30.50;22.63;;;20.20;99.90;;;;;;5049959;28;20618;-77
2023/05/30 10:58:43;;;;;;;35.03;29.15;;;20.20;99.90;;;;;;5044882;28;20041;-76
2023/05/30 11:01:24;;;;;;;17.98;14.20;;;20.40;99.90;;;;;;5053399;28;20136;-76
2023/05/30 11:03:59;;;;;;;19.25;12.70;;;20.30;99.90;;;;;;5054605;28;20088;-78
2023/05/30 11:06:28;;;;;;;14.93;12.52;;;20.20;99.90;;;;;;5041434;28;20037;-76
2023/05/30 11:09:05;;;;;;;17.08;14.65;;;20.00;99.90;;;;;;5042803;28;20048;-76
2023/05/30 11:11:41;;;;;;;16.55;14.40;;;20.20;99.90;;;;;;5042492;28;20099;-77
2023/05/30 11:14:11;;;;;;;18.23;16.30;;;20.50;99.90;;;;;;5041380;28;20041;-77
2023/05/30 11:16:49;;;;;;;24.48;19.88;;;20.90;99.90;;;;;;5040570;28;20523;-76
2023/05/30 11:19:19;;;;;;;19.98;17.88;;;21.20;99.90;;;;;;5041519;28;20459;-77
2023/05/30 11:22:00;;;;;;;17.95;15.50;;;21.50;99.90;;;;;;5040615;28;20102;-75
2023/05/30 11:24:29;;;;;;;17.77;15.90;;;21.70;99.90;;;;;;5040480;28;20559;-75
2023/05/30 11:26:58;;;;;;;15.20;13.57;;;21.80;99.90;;;;;;5038541;28;20446;-78
2023/05/30 11:29:44;;;;;;;17.58;12.13;;;21.90;99.90;;;;;;5036036;28;20069;-79
2023/05/30 11:32:12;;;;;;;14.23;11.93;;;21.70;99.90;;;;;;5036905;28;20496;-76
2023/05/30 11:34:40;;;;;;;14.82;12.82;;;21.60;99.90;;;;;;5040821;28;20152;-77
2023/05/30 11:37:08;;;;;;;24.88;22.00;;;21.70;99.90;;;;;;5040466;28;20056;-78
2023/05/30 11:39:36;;;;;;;17.85;12.63;;;21.70;99.90;;;;;;5040602;28;20052;-77
2023/05/30 11:42:05;;;;;;;14.77;13.27;;;21.80;99.90;;;;;;5039784;28;20045;-77
2023/05/30 11:44:33;;;;;;;12.80;11.30;;;21.80;99.90;;;;;;5038791;28;20481;-78
2023/05/30 11:47:04;;;;;;;12.73;11.38;;;21.80;99.90;;;;;;5039637;28;20033;-78
2023/05/30 11:49:32;;;;;;;15.63;11.52;;;21.80;99.90;;;;;;5039498;28;20126;-75
2023/05/30 11:52:00;;;;;;;12.05;9.55;;;21.70;99.90;;;;;;5040671;28;20048;-75
2023/05/30 11:54:28;;;;;;;13.07;9.00;;;21.90;99.90;;;;;;5037003;28;20033;-76
2023/05/30 11:56:56;;;;;;;10.10;9.10;;;21.90;99.90;;;;;;5037830;28;20041;-75
2023/05/30 11:59:25;;;;;;;10.88;8.27;;;21.90;99.90;;;;;;5038479;28;20041;-76
2023/05/30 12:01:57;;;;;;;8.75;7.75;;;21.80;99.90;;;;;;5036401;28;20037;-75
2023/05/30 12:04:31;;;;;;;10.35;8.25;;;21.70;99.90;;;;;;5040354;28;20052;-78
2023/05/30 12:06:59;;;;;;;12.43;8.60;;;21.80;99.90;;;;;;5036053;28;20041;-75
2023/05/30 12:09:27;;;;;;;14.25;11.05;;;21.80;99.90;;;;;;5036356;28;20045;-77
2023/05/30 12:11:57;;;;;;;8.88;7.60;;;21.90;99.90;;;;;;5047559;28;20054;-75
2023/05/30 12:14:37;;;;;;;9.18;7.97;;;21.80;99.90;;;;;;5055075;28;20557;-75
2023/05/30 12:17:12;;;;;;;9.10;8.10;;;21.80;99.90;;;;;;5039156;28;20099;-76
2023/05/30 12:19:42;;;;;;;11.75;10.05;;;21.80;99.90;;;;;;5041841;28;20038;-77
2023/05/30 12:22:11;;;;;;;9.20;8.30;;;21.80;99.90;;;;;;5034484;28;20089;-77
2023/05/30 12:24:38;;;;;;;9.70;8.40;;;22.00;99.90;;;;;;5035766;28;20128;-75
2023/05/30 12:27:07;;;;;;;11.15;9.50;;;22.20;99.90;;;;;;5039674;28;20136;-80
2023/05/30 12:29:35;;;;;;;10.93;9.02;;;22.30;99.90;;;;;;5035969;28;20102;-78
2023/05/30 12:32:03;;;;;;;46.03;35.65;;;22.60;99.90;;;;;;5037191;28;20046;-80
2023/05/30 12:34:45;;;;;;;22.65;19.10;;;22.80;99.90;;;;;;5038677;28;20562;-78
2023/05/30 12:37:14;;;;;;;19.00;14.13;;;23.10;99.90;;;;;;5038631;28;20493;-82
2023/05/30 12:39:47;;;;;;;8.63;7.22;;;23.40;99.90;;;;;;5037972;28;20039;-76